sensor_id;sensor_type;location;lat;lon;timestamp;temperature;humidity
48212;DHT22;34000;48.772;9.162;2022-12-07T00:02:20;9.70;60.30
48212;DHT22;34000;48.772;9.162;2022-12-07T00:04:48;9.80;60.30
48212;DHT22;34000;48.772;9.162;2022-12-07T00:07:13;9.80;60.30
48212;DHT22;34000;48.772;9.162;2022-12-07T00:09:39;9.70;60.20
48212;DHT22;34000;48.772;9.162;2022-12-07T00:12:06;9.60;60.20
48212;DHT22;34000;48.772;9.162;2022-12-07T00:14:32;9.70;60.30
48212;DHT22;34000;48.772;9.162;2022-12-07T00:16:57;9.70;60.30
48212;DHT22;34000;48.772;9.162;2022-12-07T00:19:23;9.70;60.30
48212;DHT22;34000;48.772;9.162;2022-12-07T00:21:48;9.70;60.20
48212;DHT22;34000;48.772;9.162;2022-12-07T00:24:14;9.70;60.30
48212;DHT22;34000;48.772;9.162;2022-12-07T00:26:40;9.70;60.30
48212;DHT22;34000;48.772;9.162;2022-12-07T00:29:07;9.70;60.30
48212;DHT22;34000;48.772;9.162;2022-12-07T00:31:35;9.70;60.20
48212;DHT22;34000;48.772;9.162;2022-12-07T00:34:07;9.70;60.30
48212;DHT22;34000;48.772;9.162;2022-12-07T00:36:36;9.70;60.30
48212;DHT22;34000;48.772;9.162;2022-12-07T00:39:01;9.70;60.30
48212;DHT22;34000;48.772;9.162;2022-12-07T00:41:27;9.70;60.40
48212;DHT22;34000;48.772;9.162;2022-12-07T00:43:54;9.60;60.30
48212;DHT22;34000;48.772;9.162;2022-12-07T00:46:19;9.70;60.40
48212;DHT22;34000;48.772;9.162;2022-12-07T00:48:45;9.70;60.40
48212;DHT22;34000;48.772;9.162;2022-12-07T00:51:12;9.60;60.30
48212;DHT22;34000;48.772;9.162;2022-12-07T00:53:38;9.60;60.40
48212;DHT22;34000;48.772;9.162;2022-12-07T00:56:23;9.50;60.30
48212;DHT22;34000;48.772;9.162;2022-12-07T00:58:49;9.60;60.40
48212;DHT22;34000;48.772;9.162;2022-12-07T01:01:15;9.60;60.40
48212;DHT22;34000;48.772;9.162;2022-12-07T01:03:40;9.50;60.30
48212;DHT22;34000;48.772;9.162;2022-12-07T01:06:05;9.60;60.30
48212;DHT22;34000;48.772;9.162;2022-12-07T01:08:31;9.60;60.40
48212;DHT22;34000;48.772;9.162;2022-12-07T01:10:57;9.50;60.30
48212;DHT22;34000;48.772;9.162;2022-12-07T01:13:23;9.50;60.40
48212;DHT22;34000;48.772;9.162;2022-12-07T01:15:48;9.50;60.30
48212;DHT22;34000;48.772;9.162;2022-12-07T01:18:14;9.40;60.30
48212;DHT22;34000;48.772;9.162;2022-12-07T01:20:39;9.40;60.40
48212;DHT22;34000;48.772;9.162;2022-12-07T01:23:05;9.40;60.60
48212;DHT22;34000;48.772;9.162;2022-12-07T01:25:31;9.30;60.70
48212;DHT22;34000;48.772;9.162;2022-12-07T01:27:56;9.30;60.70
48212;DHT22;34000;48.772;9.162;2022-12-07T01:30:22;9.30;60.60
48212;DHT22;34000;48.772;9.162;2022-12-07T01:32:47;9.40;60.50
48212;DHT22;34000;48.772;9.162;2022-12-07T01:35:13;9.40;60.40
48212;DHT22;34000;48.772;9.162;2022-12-07T01:37:39;9.40;60.40
48212;DHT22;34000;48.772;9.162;2022-12-07T01:40:06;9.30;60.80
48212;DHT22;34000;48.772;9.162;2022-12-07T01:42:32;9.30;60.30
48212;DHT22;34000;48.772;9.162;2022-12-07T01:47:42;9.40;60.30
48212;DHT22;34000;48.772;9.162;2022-12-07T01:50:08;9.40;60.30
48212;DHT22;34000;48.772;9.162;2022-12-07T01:52:35;9.40;60.30
48212;DHT22;34000;48.772;9.162;2022-12-07T01:55:06;9.40;60.30
48212;DHT22;34000;48.772;9.162;2022-12-07T01:57:33;9.40;60.30
48212;DHT22;34000;48.772;9.162;2022-12-07T01:59:59;9.40;60.30
48212;DHT22;34000;48.772;9.162;2022-12-07T02:02:26;9.40;60.30
48212;DHT22;34000;48.772;9.162;2022-12-07T02:04:52;9.30;60.30
48212;DHT22;34000;48.772;9.162;2022-12-07T02:07:18;9.30;60.30
48212;DHT22;34000;48.772;9.162;2022-12-07T02:09:45;9.20;60.30
48212;DHT22;34000;48.772;9.162;2022-12-07T02:12:10;9.30;60.40
48212;DHT22;34000;48.772;9.162;2022-12-07T02:14:36;9.20;60.40
48212;DHT22;34000;48.772;9.162;2022-12-07T02:29:46;9.10;60.40
48212;DHT22;34000;48.772;9.162;2022-12-07T02:32:17;9.10;60.50
48212;DHT22;34000;48.772;9.162;2022-12-07T02:34:48;9.20;60.50
48212;DHT22;34000;48.772;9.162;2022-12-07T02:37:24;9.20;60.60
48212;DHT22;34000;48.772;9.162;2022-12-07T02:39:53;9.20;60.50
48212;DHT22;34000;48.772;9.162;2022-12-07T02:42:23;9.20;60.50
48212;DHT22;34000;48.772;9.162;2022-12-07T02:44:50;9.10;60.50
48212;DHT22;34000;48.772;9.162;2022-12-07T02:47:16;9.10;60.40
48212;DHT22;34000;48.772;9.162;2022-12-07T02:49:43;9.10;60.40
48212;DHT22;34000;48.772;9.162;2022-12-07T02:52:09;9.10;60.50
48212;DHT22;34000;48.772;9.162;2022-12-07T02:54:35;9.00;60.40
48212;DHT22;34000;48.772;9.162;2022-12-07T03:05:07;9.00;60.50
48212;DHT22;34000;48.772;9.162;2022-12-07T03:10:47;8.90;60.50
48212;DHT22;34000;48.772;9.162;2022-12-07T03:13:19;8.80;60.60
48212;DHT22;34000;48.772;9.162;2022-12-07T03:18:13;8.70;60.70
48212;DHT22;34000;48.772;9.162;2022-12-07T03:20:40;8.70;60.90
48212;DHT22;34000;48.772;9.162;2022-12-07T03:23:08;8.60;60.90
48212;DHT22;34000;48.772;9.162;2022-12-07T03:25:35;8.60;60.90
48212;DHT22;34000;48.772;9.162;2022-12-07T03:28:03;8.70;61.00
48212;DHT22;34000;48.772;9.162;2022-12-07T03:30:38;8.70;60.90
48212;DHT22;34000;48.772;9.162;2022-12-07T03:33:07;8.70;60.90
48212;DHT22;34000;48.772;9.162;2022-12-07T03:35:34;8.80;60.90
48212;DHT22;34000;48.772;9.162;2022-12-07T03:38:05;8.80;60.80
48212;DHT22;34000;48.772;9.162;2022-12-07T03:40:56;8.80;60.70
48212;DHT22;34000;48.772;9.162;2022-12-07T03:43:19;8.80;60.70
48212;DHT22;34000;48.772;9.162;2022-12-07T03:45:50;8.80;60.70
48212;DHT22;34000;48.772;9.162;2022-12-07T03:48:25;8.80;60.60
48212;DHT22;34000;48.772;9.162;2022-12-07T03:53:39;8.80;60.60
48212;DHT22;34000;48.772;9.162;2022-12-07T03:56:06;8.80;60.50
48212;DHT22;34000;48.772;9.162;2022-12-07T03:58:32;8.80;60.50
48212;DHT22;34000;48.772;9.162;2022-12-07T04:00:59;8.90;60.50
48212;DHT22;34000;48.772;9.162;2022-12-07T04:03:24;8.80;60.40
48212;DHT22;34000;48.772;9.162;2022-12-07T04:05:50;8.80;60.40
48212;DHT22;34000;48.772;9.162;2022-12-07T04:08:15;8.80;60.40
48212;DHT22;34000;48.772;9.162;2022-12-07T04:10:41;8.80;60.40
48212;DHT22;34000;48.772;9.162;2022-12-07T04:13:06;8.80;60.40
48212;DHT22;34000;48.772;9.162;2022-12-07T04:15:32;8.80;60.40
48212;DHT22;34000;48.772;9.162;2022-12-07T04:17:57;8.80;60.30
48212;DHT22;34000;48.772;9.162;2022-12-07T04:20:23;8.70;60.30
48212;DHT22;34000;48.772;9.162;2022-12-07T04:22:49;8.60;60.30
48212;DHT22;34000;48.772;9.162;2022-12-07T04:25:14;8.60;60.20
48212;DHT22;34000;48.772;9.162;2022-12-07T04:27:40;8.60;60.20
48212;DHT22;34000;48.772;9.162;2022-12-07T04:30:05;8.60;60.10
48212;DHT22;34000;48.772;9.162;2022-12-07T04:32:31;8.60;60.00
48212;DHT22;34000;48.772;9.162;2022-12-07T04:34:57;8.60;60.00
48212;DHT22;34000;48.772;9.162;2022-12-07T04:37:22;8.60;59.80
48212;DHT22;34000;48.772;9.162;2022-12-07T04:39:48;8.60;59.60
48212;DHT22;34000;48.772;9.162;2022-12-07T04:42:14;8.60;59.50
48212;DHT22;34000;48.772;9.162;2022-12-07T04:44:40;8.60;59.50
48212;DHT22;34000;48.772;9.162;2022-12-07T04:47:05;8.40;59.40
48212;DHT22;34000;48.772;9.162;2022-12-07T04:49:31;8.40;59.40
48212;DHT22;34000;48.772;9.162;2022-12-07T04:51:56;8.50;59.50
48212;DHT22;34000;48.772;9.162;2022-12-07T04:54:21;8.40;59.40
48212;DHT22;34000;48.772;9.162;2022-12-07T04:56:47;8.50;59.40
48212;DHT22;34000;48.772;9.162;2022-12-07T05:01:38;8.40;58.80
48212;DHT22;34000;48.772;9.162;2022-12-07T05:06:30;8.10;58.80
48212;DHT22;34000;48.772;9.162;2022-12-07T05:08:55;7.90;59.50
48212;DHT22;34000;48.772;9.162;2022-12-07T05:11:21;7.80;59.80
48212;DHT22;34000;48.772;9.162;2022-12-07T05:16:30;7.80;60.20
48212;DHT22;34000;48.772;9.162;2022-12-07T05:18:56;7.90;60.20
48212;DHT22;34000;48.772;9.162;2022-12-07T05:21:21;8.10;70.20
48212;DHT22;34000;48.772;9.162;2022-12-07T05:23:47;8.00;59.90
48212;DHT22;34000;48.772;9.162;2022-12-07T05:26:12;8.00;59.80
48212;DHT22;34000;48.772;9.162;2022-12-07T05:28:38;8.00;59.80
48212;DHT22;34000;48.772;9.162;2022-12-07T05:31:03;8.00;59.70
48212;DHT22;34000;48.772;9.162;2022-12-07T05:33:29;8.00;59.70
48212;DHT22;34000;48.772;9.162;2022-12-07T05:35:54;8.10;59.70
48212;DHT22;34000;48.772;9.162;2022-12-07T05:38:20;8.10;59.60
48212;DHT22;34000;48.772;9.162;2022-12-07T05:40:45;8.10;59.50
48212;DHT22;34000;48.772;9.162;2022-12-07T05:43:11;8.10;59.50
48212;DHT22;34000;48.772;9.162;2022-12-07T05:45:36;8.00;59.50
48212;DHT22;34000;48.772;9.162;2022-12-07T05:48:02;8.00;59.50
48212;DHT22;34000;48.772;9.162;2022-12-07T05:50:28;8.00;59.50
48212;DHT22;34000;48.772;9.162;2022-12-07T05:52:53;7.90;59.60
48212;DHT22;34000;48.772;9.162;2022-12-07T05:55:19;8.20;64.10
48212;DHT22;34000;48.772;9.162;2022-12-07T05:57:45;7.80;59.90
48212;DHT22;34000;48.772;9.162;2022-12-07T06:00:30;7.80;59.90
48212;DHT22;34000;48.772;9.162;2022-12-07T06:02:56;7.80;60.00
48212;DHT22;34000;48.772;9.162;2022-12-07T06:05:21;7.80;60.00
48212;DHT22;34000;48.772;9.162;2022-12-07T06:07:47;7.80;60.10
48212;DHT22;34000;48.772;9.162;2022-12-07T06:10:12;8.10;67.80
48212;DHT22;34000;48.772;9.162;2022-12-07T06:12:38;8.10;84.80
48212;DHT22;34000;48.772;9.162;2022-12-07T06:15:05;8.20;80.60
48212;DHT22;34000;48.772;9.162;2022-12-07T06:17:30;8.10;82.10
48212;DHT22;34000;48.772;9.162;2022-12-07T06:19:56;8.30;82.50
48212;DHT22;34000;48.772;9.162;2022-12-07T06:22:21;8.20;82.20
48212;DHT22;34000;48.772;9.162;2022-12-07T06:24:47;8.20;82.40
48212;DHT22;34000;48.772;9.162;2022-12-07T06:27:12;8.10;82.40
48212;DHT22;34000;48.772;9.162;2022-12-07T06:29:38;8.20;81.30
48212;DHT22;34000;48.772;9.162;2022-12-07T06:32:03;8.10;59.60
48212;DHT22;34000;48.772;9.162;2022-12-07T06:34:30;8.20;59.50
48212;DHT22;34000;48.772;9.162;2022-12-07T06:36:55;8.20;59.50
48212;DHT22;34000;48.772;9.162;2022-12-07T06:39:21;8.30;59.50
48212;DHT22;34000;48.772;9.162;2022-12-07T06:41:47;8.30;59.40
48212;DHT22;34000;48.772;9.162;2022-12-07T06:44:13;8.30;59.20
48212;DHT22;34000;48.772;9.162;2022-12-07T06:46:38;8.30;59.20
48212;DHT22;34000;48.772;9.162;2022-12-07T06:49:04;8.20;59.10
48212;DHT22;34000;48.772;9.162;2022-12-07T06:51:30;8.20;59.10
48212;DHT22;34000;48.772;9.162;2022-12-07T06:56:21;8.00;58.50
48212;DHT22;34000;48.772;9.162;2022-12-07T06:58:48;7.80;59.10
48212;DHT22;34000;48.772;9.162;2022-12-07T07:01:14;7.70;59.30
48212;DHT22;34000;48.772;9.162;2022-12-07T07:06:06;7.40;59.10
48212;DHT22;34000;48.772;9.162;2022-12-07T07:08:33;7.40;59.80
48212;DHT22;34000;48.772;9.162;2022-12-07T07:10:58;7.50;59.80
48212;DHT22;34000;48.772;9.162;2022-12-07T07:13:24;7.50;59.80
48212;DHT22;34000;48.772;9.162;2022-12-07T07:15:49;7.40;59.70
48212;DHT22;34000;48.772;9.162;2022-12-07T07:18:15;7.40;59.70
48212;DHT22;34000;48.772;9.162;2022-12-07T07:20:40;7.40;59.60
48212;DHT22;34000;48.772;9.162;2022-12-07T07:23:06;7.40;59.60
48212;DHT22;34000;48.772;9.162;2022-12-07T07:25:31;7.40;59.60
48212;DHT22;34000;48.772;9.162;2022-12-07T07:27:57;7.50;59.60
48212;DHT22;34000;48.772;9.162;2022-12-07T07:30:23;7.40;59.50
48212;DHT22;34000;48.772;9.162;2022-12-07T07:32:48;7.40;59.50
48212;DHT22;34000;48.772;9.162;2022-12-07T07:35:14;7.40;59.50
48212;DHT22;34000;48.772;9.162;2022-12-07T07:37:40;7.40;59.40
48212;DHT22;34000;48.772;9.162;2022-12-07T07:40:06;7.40;59.40
48212;DHT22;34000;48.772;9.162;2022-12-07T07:42:32;7.40;59.40
48212;DHT22;34000;48.772;9.162;2022-12-07T07:44:57;7.40;59.40
48212;DHT22;34000;48.772;9.162;2022-12-07T07:47:23;7.40;59.40
48212;DHT22;34000;48.772;9.162;2022-12-07T07:49:48;7.50;59.40
48212;DHT22;34000;48.772;9.162;2022-12-07T07:52:13;7.50;59.40
48212;DHT22;34000;48.772;9.162;2022-12-07T07:54:39;7.50;59.30
48212;DHT22;34000;48.772;9.162;2022-12-07T07:57:04;7.50;59.20
48212;DHT22;34000;48.772;9.162;2022-12-07T07:59:30;7.60;59.30
48212;DHT22;34000;48.772;9.162;2022-12-07T08:01:55;7.60;59.20
48212;DHT22;34000;48.772;9.162;2022-12-07T08:04:21;7.70;59.20
48212;DHT22;34000;48.772;9.162;2022-12-07T08:06:46;7.90;59.10
48212;DHT22;34000;48.772;9.162;2022-12-07T08:09:12;7.90;59.00
48212;DHT22;34000;48.772;9.162;2022-12-07T08:11:37;8.10;58.90
48212;DHT22;34000;48.772;9.162;2022-12-07T08:14:03;8.20;58.70
48212;DHT22;34000;48.772;9.162;2022-12-07T08:16:28;8.20;58.60
48212;DHT22;34000;48.772;9.162;2022-12-07T08:18:54;8.30;58.50
48212;DHT22;34000;48.772;9.162;2022-12-07T08:21:19;8.40;58.50
48212;DHT22;34000;48.772;9.162;2022-12-07T08:23:45;8.50;58.40
48212;DHT22;34000;48.772;9.162;2022-12-07T08:26:12;8.60;58.30
48212;DHT22;34000;48.772;9.162;2022-12-07T08:28:38;8.70;58.20
48212;DHT22;34000;48.772;9.162;2022-12-07T08:31:05;8.80;58.10
48212;DHT22;34000;48.772;9.162;2022-12-07T08:33:31;8.90;58.00
48212;DHT22;34000;48.772;9.162;2022-12-07T08:36:04;9.00;57.90
48212;DHT22;34000;48.772;9.162;2022-12-07T08:38:30;9.10;57.80
48212;DHT22;34000;48.772;9.162;2022-12-07T08:40:56;9.20;57.70
48212;DHT22;34000;48.772;9.162;2022-12-07T08:43:21;9.30;57.70
48212;DHT22;34000;48.772;9.162;2022-12-07T08:45:52;9.30;57.40
48212;DHT22;34000;48.772;9.162;2022-12-07T08:48:19;9.30;57.10
48212;DHT22;34000;48.772;9.162;2022-12-07T08:50:47;9.30;57.20
48212;DHT22;34000;48.772;9.162;2022-12-07T08:53:13;9.30;57.20
48212;DHT22;34000;48.772;9.162;2022-12-07T08:55:39;9.30;57.10
48212;DHT22;34000;48.772;9.162;2022-12-07T08:58:04;9.40;57.00
48212;DHT22;34000;48.772;9.162;2022-12-07T09:00:30;9.30;56.70
48212;DHT22;34000;48.772;9.162;2022-12-07T09:02:55;9.30;56.50
48212;DHT22;34000;48.772;9.162;2022-12-07T09:05:21;9.20;56.50
48212;DHT22;34000;48.772;9.162;2022-12-07T09:07:49;9.10;56.50
48212;DHT22;34000;48.772;9.162;2022-12-07T09:10:16;9.10;56.50
48212;DHT22;34000;48.772;9.162;2022-12-07T09:12:41;9.00;56.50
48212;DHT22;34000;48.772;9.162;2022-12-07T09:15:07;9.00;56.60
48212;DHT22;34000;48.772;9.162;2022-12-07T09:17:33;9.10;56.70
48212;DHT22;34000;48.772;9.162;2022-12-07T09:19:59;9.20;56.70
48212;DHT22;34000;48.772;9.162;2022-12-07T09:22:29;9.30;56.70
48212;DHT22;34000;48.772;9.162;2022-12-07T09:24:56;9.50;56.50
48212;DHT22;34000;48.772;9.162;2022-12-07T09:27:21;9.60;56.10
48212;DHT22;34000;48.772;9.162;2022-12-07T09:29:47;9.70;55.90
48212;DHT22;34000;48.772;9.162;2022-12-07T09:32:12;9.80;55.70
48212;DHT22;34000;48.772;9.162;2022-12-07T09:34:38;9.90;55.50
48212;DHT22;34000;48.772;9.162;2022-12-07T09:37:03;10.00;55.50
48212;DHT22;34000;48.772;9.162;2022-12-07T09:39:29;10.20;55.30
48212;DHT22;34000;48.772;9.162;2022-12-07T09:41:56;10.50;56.70
48212;DHT22;34000;48.772;9.162;2022-12-07T09:44:23;10.50;55.00
48212;DHT22;34000;48.772;9.162;2022-12-07T09:49:19;10.60;54.20
48212;DHT22;34000;48.772;9.162;2022-12-07T09:51:45;10.70;54.60
48212;DHT22;34000;48.772;9.162;2022-12-07T09:54:14;10.80;54.60
48212;DHT22;34000;48.772;9.162;2022-12-07T09:56:41;10.80;54.40
48212;DHT22;34000;48.772;9.162;2022-12-07T09:59:09;10.90;54.50
48212;DHT22;34000;48.772;9.162;2022-12-07T10:01:37;10.90;54.30
48212;DHT22;34000;48.772;9.162;2022-12-07T10:04:22;11.00;54.40
48212;DHT22;34000;48.772;9.162;2022-12-07T10:06:49;11.00;54.40
48212;DHT22;34000;48.772;9.162;2022-12-07T10:09:17;11.00;54.10
48212;DHT22;34000;48.772;9.162;2022-12-07T10:14:27;10.90;54.30
48212;DHT22;34000;48.772;9.162;2022-12-07T10:16:54;10.90;54.50
48212;DHT22;34000;48.772;9.162;2022-12-07T10:19:38;11.00;54.40
48212;DHT22;34000;48.772;9.162;2022-12-07T10:22:11;11.00;54.40
48212;DHT22;34000;48.772;9.162;2022-12-07T10:24:37;11.00;54.20
48212;DHT22;34000;48.772;9.162;2022-12-07T10:27:04;10.90;54.20
48212;DHT22;34000;48.772;9.162;2022-12-07T10:29:31;10.80;53.90
48212;DHT22;34000;48.772;9.162;2022-12-07T10:32:02;10.70;54.00
48212;DHT22;34000;48.772;9.162;2022-12-07T10:34:29;10.70;54.10
48212;DHT22;34000;48.772;9.162;2022-12-07T10:42:09;10.80;54.30
48212;DHT22;34000;48.772;9.162;2022-12-07T10:44:40;10.80;54.20
48212;DHT22;34000;48.772;9.162;2022-12-07T10:50:08;10.80;54.10
48212;DHT22;34000;48.772;9.162;2022-12-07T10:52:51;10.80;54.10
48212;DHT22;34000;48.772;9.162;2022-12-07T10:58:16;10.80;54.20
48212;DHT22;34000;48.772;9.162;2022-12-07T11:13:50;10.60;54.40
48212;DHT22;34000;48.772;9.162;2022-12-07T11:21:25;10.60;54.40
48212;DHT22;34000;48.772;9.162;2022-12-07T11:36:51;10.60;54.40
48212;DHT22;34000;48.772;9.162;2022-12-07T11:41:43;10.50;54.60
48212;DHT22;34000;48.772;9.162;2022-12-07T11:44:22;10.50;54.60
48212;DHT22;34000;48.772;9.162;2022-12-07T11:46:56;10.50;54.60
48212;DHT22;34000;48.772;9.162;2022-12-07T11:49:27;10.50;55.20
48212;DHT22;34000;48.772;9.162;2022-12-07T11:51:57;10.60;54.60
48212;DHT22;34000;48.772;9.162;2022-12-07T11:54:28;10.60;54.60
48212;DHT22;34000;48.772;9.162;2022-12-07T11:56:55;10.60;54.50
48212;DHT22;34000;48.772;9.162;2022-12-07T12:01:53;10.50;54.40
48212;DHT22;34000;48.772;9.162;2022-12-07T12:06:57;10.40;54.50
48212;DHT22;34000;48.772;9.162;2022-12-07T12:09:28;10.40;54.60
48212;DHT22;34000;48.772;9.162;2022-12-07T12:17:11;10.40;54.70
48212;DHT22;34000;48.772;9.162;2022-12-07T12:19:57;10.50;54.70
48212;DHT22;34000;48.772;9.162;2022-12-07T12:22:27;10.40;54.70
48212;DHT22;34000;48.772;9.162;2022-12-07T12:24:53;10.40;54.80
48212;DHT22;34000;48.772;9.162;2022-12-07T12:29:51;10.50;54.90
48212;DHT22;34000;48.772;9.162;2022-12-07T12:32:19;10.50;54.90
48212;DHT22;34000;48.772;9.162;2022-12-07T12:35:17;10.60;54.90
48212;DHT22;34000;48.772;9.162;2022-12-07T12:37:45;10.60;54.80
48212;DHT22;34000;48.772;9.162;2022-12-07T12:42:49;10.60;54.80
48212;DHT22;34000;48.772;9.162;2022-12-07T13:00:49;10.90;54.60
48212;DHT22;34000;48.772;9.162;2022-12-07T13:03:33;10.90;54.50
48212;DHT22;34000;48.772;9.162;2022-12-07T13:08:43;10.80;54.60
48212;DHT22;34000;48.772;9.162;2022-12-07T13:19:55;10.70;54.70
48212;DHT22;34000;48.772;9.162;2022-12-07T13:24:56;10.80;54.60
48212;DHT22;34000;48.772;9.162;2022-12-07T13:27:21;10.70;54.60
48212;DHT22;34000;48.772;9.162;2022-12-07T13:29:47;10.80;54.60
48212;DHT22;34000;48.772;9.162;2022-12-07T13:32:26;10.80;54.60
48212;DHT22;34000;48.772;9.162;2022-12-07T13:34:52;10.90;54.60
48212;DHT22;34000;48.772;9.162;2022-12-07T13:39:47;10.80;54.50
48212;DHT22;34000;48.772;9.162;2022-12-07T13:44:44;10.70;54.50
48212;DHT22;34000;48.772;9.162;2022-12-07T13:47:12;10.70;54.60
48212;DHT22;34000;48.772;9.162;2022-12-07T13:49:48;10.70;54.60
48212;DHT22;34000;48.772;9.162;2022-12-07T13:52:16;10.60;54.70
48212;DHT22;34000;48.772;9.162;2022-12-07T13:54:59;10.60;54.70
48212;DHT22;34000;48.772;9.162;2022-12-07T13:57:25;10.70;54.70
48212;DHT22;34000;48.772;9.162;2022-12-07T13:59:51;10.70;54.70
48212;DHT22;34000;48.772;9.162;2022-12-07T14:02:17;10.70;54.60
48212;DHT22;34000;48.772;9.162;2022-12-07T14:04:43;10.70;54.60
48212;DHT22;34000;48.772;9.162;2022-12-07T14:07:24;10.60;54.50
48212;DHT22;34000;48.772;9.162;2022-12-07T14:10:00;10.60;54.50
48212;DHT22;34000;48.772;9.162;2022-12-07T14:12:27;10.60;54.50
48212;DHT22;34000;48.772;9.162;2022-12-07T14:14:53;10.60;54.60
48212;DHT22;34000;48.772;9.162;2022-12-07T14:17:20;10.60;54.60
48212;DHT22;34000;48.772;9.162;2022-12-07T14:22:56;10.60;54.60
48212;DHT22;34000;48.772;9.162;2022-12-07T14:27:34;10.60;54.60
48212;DHT22;34000;48.772;9.162;2022-12-07T14:30:00;10.60;54.60
48212;DHT22;34000;48.772;9.162;2022-12-07T14:32:27;10.60;54.60
48212;DHT22;34000;48.772;9.162;2022-12-07T14:35:10;10.50;54.60
48212;DHT22;34000;48.772;9.162;2022-12-07T14:37:36;10.50;54.70
48212;DHT22;34000;48.772;9.162;2022-12-07T14:40:02;10.60;54.70
48212;DHT22;34000;48.772;9.162;2022-12-07T14:42:28;10.50;54.70
48212;DHT22;34000;48.772;9.162;2022-12-07T14:44:55;10.50;54.70
48212;DHT22;34000;48.772;9.162;2022-12-07T14:47:21;10.40;54.60
48212;DHT22;34000;48.772;9.162;2022-12-07T14:49:47;10.40;54.70
48212;DHT22;34000;48.772;9.162;2022-12-07T14:52:17;10.40;54.70
48212;DHT22;34000;48.772;9.162;2022-12-07T14:54:43;10.40;54.70
48212;DHT22;34000;48.772;9.162;2022-12-07T14:57:09;10.40;54.80
48212;DHT22;34000;48.772;9.162;2022-12-07T14:59:35;10.30;54.70
48212;DHT22;34000;48.772;9.162;2022-12-07T15:02:01;10.30;54.80
48212;DHT22;34000;48.772;9.162;2022-12-07T15:04:26;10.30;54.90
48212;DHT22;34000;48.772;9.162;2022-12-07T15:06:59;10.30;55.00
48212;DHT22;34000;48.772;9.162;2022-12-07T15:09:24;10.20;54.90
48212;DHT22;34000;48.772;9.162;2022-12-07T15:11:50;10.20;54.90
48212;DHT22;34000;48.772;9.162;2022-12-07T15:14:15;10.30;55.00
48212;DHT22;34000;48.772;9.162;2022-12-07T15:16:41;10.20;55.00
48212;DHT22;34000;48.772;9.162;2022-12-07T15:19:12;10.20;54.90
48212;DHT22;34000;48.772;9.162;2022-12-07T15:21:37;10.20;55.00
48212;DHT22;34000;48.772;9.162;2022-12-07T15:24:03;10.10;54.90
48212;DHT22;34000;48.772;9.162;2022-12-07T15:26:28;10.20;55.00
48212;DHT22;34000;48.772;9.162;2022-12-07T15:28:54;10.10;55.00
48212;DHT22;34000;48.772;9.162;2022-12-07T15:31:19;10.10;55.10
48212;DHT22;34000;48.772;9.162;2022-12-07T15:33:45;10.10;55.10
48212;DHT22;34000;48.772;9.162;2022-12-07T15:36:18;10.00;55.10
48212;DHT22;34000;48.772;9.162;2022-12-07T15:38:43;10.00;55.20
48212;DHT22;34000;48.772;9.162;2022-12-07T15:41:09;10.00;55.20
48212;DHT22;34000;48.772;9.162;2022-12-07T15:43:35;10.00;55.20
48212;DHT22;34000;48.772;9.162;2022-12-07T15:46:19;9.90;55.20
48212;DHT22;34000;48.772;9.162;2022-12-07T15:48:45;9.90;55.20
48212;DHT22;34000;48.772;9.162;2022-12-07T15:51:11;9.90;55.20
48212;DHT22;34000;48.772;9.162;2022-12-07T15:53:36;9.90;55.20
48212;DHT22;34000;48.772;9.162;2022-12-07T15:56:05;9.90;55.20
48212;DHT22;34000;48.772;9.162;2022-12-07T15:58:31;9.90;55.20
48212;DHT22;34000;48.772;9.162;2022-12-07T16:00:56;9.90;55.20
48212;DHT22;34000;48.772;9.162;2022-12-07T16:03:22;9.90;55.20
48212;DHT22;34000;48.772;9.162;2022-12-07T16:05:51;9.90;55.20
48212;DHT22;34000;48.772;9.162;2022-12-07T16:08:16;9.80;55.20
48212;DHT22;34000;48.772;9.162;2022-12-07T16:10:42;9.80;55.20
48212;DHT22;34000;48.772;9.162;2022-12-07T16:13:11;9.80;55.30
48212;DHT22;34000;48.772;9.162;2022-12-07T16:15:41;9.70;55.30
48212;DHT22;34000;48.772;9.162;2022-12-07T16:18:07;9.70;55.40
48212;DHT22;34000;48.772;9.162;2022-12-07T16:20:32;9.70;55.40
48212;DHT22;34000;48.772;9.162;2022-12-07T16:22:58;9.60;55.50
48212;DHT22;34000;48.772;9.162;2022-12-07T16:25:33;9.60;55.50
48212;DHT22;34000;48.772;9.162;2022-12-07T16:28:04;9.60;55.60
48212;DHT22;34000;48.772;9.162;2022-12-07T16:30:29;9.50;55.50
48212;DHT22;34000;48.772;9.162;2022-12-07T16:32:55;9.50;55.60
48212;DHT22;34000;48.772;9.162;2022-12-07T16:35:20;9.40;55.60
48212;DHT22;34000;48.772;9.162;2022-12-07T16:37:56;9.40;55.70
48212;DHT22;34000;48.772;9.162;2022-12-07T16:40:21;9.40;55.70
48212;DHT22;34000;48.772;9.162;2022-12-07T16:42:47;9.30;55.70
48212;DHT22;34000;48.772;9.162;2022-12-07T16:45:12;9.30;55.80
48212;DHT22;34000;48.772;9.162;2022-12-07T16:47:39;9.30;55.80
48212;DHT22;34000;48.772;9.162;2022-12-07T16:50:05;9.30;55.80
48212;DHT22;34000;48.772;9.162;2022-12-07T16:52:31;9.30;55.80
48212;DHT22;34000;48.772;9.162;2022-12-07T16:54:56;9.30;55.80
48212;DHT22;34000;48.772;9.162;2022-12-07T16:57:22;9.30;55.80
48212;DHT22;34000;48.772;9.162;2022-12-07T16:59:47;9.20;55.80
48212;DHT22;34000;48.772;9.162;2022-12-07T17:19:33;9.10;54.70
48212;DHT22;34000;48.772;9.162;2022-12-07T17:21:58;9.00;55.60
48212;DHT22;34000;48.772;9.162;2022-12-07T17:24:24;8.90;55.80
48212;DHT22;34000;48.772;9.162;2022-12-07T17:26:49;8.90;56.00
48212;DHT22;34000;48.772;9.162;2022-12-07T17:29:16;8.90;56.10
48212;DHT22;34000;48.772;9.162;2022-12-07T17:31:41;8.80;56.10
48212;DHT22;34000;48.772;9.162;2022-12-07T17:34:10;8.90;56.10
48212;DHT22;34000;48.772;9.162;2022-12-07T17:36:36;8.90;56.10
48212;DHT22;34000;48.772;9.162;2022-12-07T17:39:06;8.90;56.10
48212;DHT22;34000;48.772;9.162;2022-12-07T17:41:32;9.00;56.10
48212;DHT22;34000;48.772;9.162;2022-12-07T17:44:16;9.00;56.00
48212;DHT22;34000;48.772;9.162;2022-12-07T17:46:43;8.90;55.90
48212;DHT22;34000;48.772;9.162;2022-12-07T17:49:09;8.90;55.90
48212;DHT22;34000;48.772;9.162;2022-12-07T17:51:35;8.80;56.00
48212;DHT22;34000;48.772;9.162;2022-12-07T17:54:19;8.70;56.10
48212;DHT22;34000;48.772;9.162;2022-12-07T17:56:45;8.80;57.90
48212;DHT22;34000;48.772;9.162;2022-12-07T17:59:10;8.60;56.30
48212;DHT22;34000;48.772;9.162;2022-12-07T18:01:36;8.70;56.50
48212;DHT22;34000;48.772;9.162;2022-12-07T18:04:02;8.60;56.40
48212;DHT22;34000;48.772;9.162;2022-12-07T18:06:28;8.70;56.50
48212;DHT22;34000;48.772;9.162;2022-12-07T18:08:53;8.80;56.40
48212;DHT22;34000;48.772;9.162;2022-12-07T18:11:19;8.80;56.30
48212;DHT22;34000;48.772;9.162;2022-12-07T18:13:44;8.90;56.20
48212;DHT22;34000;48.772;9.162;2022-12-07T18:16:12;8.90;56.20
48212;DHT22;34000;48.772;9.162;2022-12-07T18:18:37;9.00;56.20
48212;DHT22;34000;48.772;9.162;2022-12-07T18:21:03;9.00;56.20
48212;DHT22;34000;48.772;9.162;2022-12-07T18:23:29;9.00;56.10
48212;DHT22;34000;48.772;9.162;2022-12-07T18:25:54;8.90;56.10
48212;DHT22;34000;48.772;9.162;2022-12-07T18:28:20;8.80;56.10
48212;DHT22;34000;48.772;9.162;2022-12-07T18:30:45;8.70;56.30